Hachioji, Japan
Current Conditions -  °F | °C
As of 12:58 PM on Thursday 29 Jan 2015 (Local Time) from RJTY Reporting Station
Clear Clear  
Wind Chill: 44°   Ceiling: Unl
Heat Index: 44°   Visibility: 10mi
Dew Point: 12°   Wind: 2mph
Humidity: 27%   Direction: NA
Pressure: 30.31"   Gusts: NA
Location:  35.66°N, 139.33°E
Report Text: RJTY 290358Z AUTO VRB02KT 10SM CLR 07/M11 A3031 RMK AO2 SLP276 T00691111
Loading
Personal Weather Stations






























Interactive Weather Map New forecast layout! Learn more

10-Day Weather Forecast

Advertisements
Track Severe Weather on mobile